createdAt,value
2022-10-22T00:01:16.460Z,100218.34
2022-10-22T00:03:42.937Z,100220.94
2022-10-22T00:06:09.401Z,100219.25
2022-10-22T00:08:35.914Z,100210.56
2022-10-22T00:11:14.401Z,100226.09
2022-10-22T00:13:41.019Z,100235.66
2022-10-22T00:16:07.974Z,100220.16
2022-10-22T00:18:35.137Z,100234.88
2022-10-22T00:21:02.192Z,100234.94
2022-10-22T00:23:28.861Z,100235.81
2022-10-22T00:25:55.410Z,100238.47
2022-10-22T00:28:22.151Z,100230.88
2022-10-22T00:30:48.612Z,100238.81
2022-10-22T00:33:15.028Z,100242.16
2022-10-22T00:35:41.492Z,100251.75
2022-10-22T00:38:07.988Z,100232.09
2022-10-22T00:40:34.995Z,100249.31
2022-10-22T00:43:01.521Z,100264.91
2022-10-22T00:45:28.497Z,100267.56
2022-10-22T00:48:09.042Z,100264.25
2022-10-22T00:50:43.645Z,100264.38
2022-10-22T00:53:17.233Z,100259.25
2022-10-22T00:55:46.134Z,100265.47
2022-10-22T00:58:13.959Z,100284.25
2022-10-22T01:00:40.713Z,100278.31
2022-10-22T01:03:07.461Z,100288.75
2022-10-22T01:05:45.189Z,100297.47
2022-10-22T01:08:23.732Z,100250.28
2022-10-22T01:11:19.387Z,100292.38
2022-10-22T01:13:51.892Z,100295.88
2022-10-22T01:16:41.338Z,100268.66
2022-10-22T01:19:25.505Z,100307.28
2022-10-22T01:21:59.583Z,100323.91
2022-10-22T01:24:38.244Z,100316.25
2022-10-22T01:27:11.847Z,100293.97
2022-10-22T01:29:59.963Z,100288.13
2022-10-22T01:32:29.339Z,100314.72
2022-10-22T01:35:01.764Z,100335.38
2022-10-22T01:37:37.022Z,100345.69
2022-10-22T01:40:06.850Z,100332.81
2022-10-22T01:42:33.306Z,100326.88
2022-10-22T01:44:59.758Z,100331.13
2022-10-22T01:47:54.150Z,100352.72
2022-10-22T01:50:44.467Z,100343.19
2022-10-22T01:53:21.452Z,100351.03
2022-10-22T01:55:47.855Z,100357.97
2022-10-22T01:58:33.982Z,100362.34
2022-10-22T02:01:08.701Z,100375.38
2022-10-22T02:03:49.969Z,100371.88
2022-10-22T02:06:20.626Z,100336.66
2022-10-22T02:08:49.689Z,100352.16
2022-10-22T02:11:16.834Z,100370.06
2022-10-22T02:13:48.158Z,100364.03
2022-10-22T02:16:36.265Z,100373.44
2022-10-22T02:19:11.240Z,100339.16
2022-10-22T02:21:37.909Z,100354.53
2022-10-22T02:24:04.785Z,100379.53
2022-10-22T02:26:50.203Z,100373.63
2022-10-22T02:29:26.397Z,100390.00
2022-10-22T02:31:56.660Z,100381.34
2022-10-22T02:34:27.762Z,100390.06
2022-10-22T02:36:54.735Z,100356.59
2022-10-22T02:39:22.974Z,100378.81
2022-10-22T02:41:49.478Z,100397.00
2022-10-22T02:44:16.016Z,100400.44
2022-10-22T02:46:43.305Z,100400.56
2022-10-22T02:49:09.740Z,100396.22
2022-10-22T02:51:36.184Z,100404.81
2022-10-22T02:54:02.626Z,100380.75
2022-10-22T02:56:29.106Z,100397.25
2022-10-22T02:58:55.573Z,100414.44
2022-10-22T03:01:22.122Z,100410.06
2022-10-22T03:03:48.686Z,100406.66
2022-10-22T03:06:15.275Z,100408.53
2022-10-22T03:08:42.107Z,100410.19
2022-10-22T03:11:08.768Z,100414.53
2022-10-22T03:13:35.410Z,100419.84
2022-10-22T03:16:02.228Z,100430.19
2022-10-22T03:18:28.632Z,100428.56
2022-10-22T03:21:06.058Z,100405.53
2022-10-22T03:23:33.025Z,100443.25
2022-10-22T03:28:26.404Z,100427.16
2022-10-22T03:30:52.811Z,100457.25
2022-10-22T03:33:19.221Z,100465.09
2022-10-22T03:35:47.771Z,100443.63
2022-10-22T03:38:14.826Z,100459.03
2022-10-22T03:40:43.909Z,100411.16
2022-10-22T03:43:10.417Z,100449.75
2022-10-22T03:48:08.226Z,100477.31
2022-10-22T03:50:34.684Z,100484.25
2022-10-22T03:53:01.165Z,100479.09
2022-10-22T03:55:27.549Z,100489.47
2022-10-22T03:57:54.135Z,100487.75
2022-10-22T04:00:20.642Z,100503.25
2022-10-22T04:02:47.118Z,100508.47
2022-10-22T04:07:41.182Z,100523.16
2022-10-22T04:10:08.303Z,100518.88
2022-10-22T04:12:34.741Z,100521.44
2022-10-22T04:15:01.164Z,100524.03
2022-10-22T04:17:36.413Z,100530.91
2022-10-22T04:20:04.505Z,100525.75
2022-10-22T04:22:33.919Z,100512.91
2022-10-22T04:25:00.499Z,100550.81
2022-10-22T04:27:33.044Z,100539.63
2022-10-22T04:29:59.465Z,100548.31
2022-10-22T04:32:27.167Z,100560.28
2022-10-22T04:34:53.668Z,100569.84
2022-10-22T04:37:20.275Z,100567.22
2022-10-22T04:39:46.739Z,100571.66
2022-10-22T04:42:14.158Z,100563.97
2022-10-22T04:44:40.582Z,100579.47
2022-10-22T04:47:07.023Z,100581.25
2022-10-22T04:49:33.484Z,100575.19
2022-10-22T04:51:59.890Z,100583.88
2022-10-22T04:54:29.035Z,100590.69
2022-10-22T04:56:58.698Z,100602.00
2022-10-22T04:59:25.249Z,100607.22
2022-10-22T05:01:51.670Z,100610.75
2022-10-22T05:04:18.166Z,100611.56
2022-10-22T05:06:44.863Z,100600.50
2022-10-22T05:09:14.165Z,100587.72
2022-10-22T05:11:42.603Z,100612.63
2022-10-22T05:14:11.068Z,100617.03
2022-10-22T05:16:38.049Z,100624.00
2022-10-22T05:19:05.708Z,100621.38
2022-10-22T05:21:32.606Z,100633.59
2022-10-22T05:23:59.096Z,100634.59
2022-10-22T05:26:26.525Z,100634.63
2022-10-22T05:28:53.136Z,100630.56
2022-10-22T05:31:20.020Z,100653.03
2022-10-22T05:33:46.998Z,100648.75
2022-10-22T05:36:16.125Z,100650.63
2022-10-22T05:38:42.569Z,100643.59
2022-10-22T05:41:12.234Z,100617.03
2022-10-22T05:43:38.998Z,100639.44
2022-10-22T05:46:10.799Z,100644.66
2022-10-22T05:48:37.618Z,100648.16
2022-10-22T05:51:06.235Z,100650.00
2022-10-22T05:53:33.687Z,100651.72
2022-10-22T05:56:05.392Z,100650.03
2022-10-22T05:58:31.976Z,100663.97
2022-10-22T06:01:28.082Z,100677.00
2022-10-22T06:03:56.598Z,100642.69
2022-10-22T06:06:27.812Z,100694.47
2022-10-22T06:08:55.873Z,100697.16
2022-10-22T06:11:24.015Z,100700.69
2022-10-22T06:13:51.431Z,100702.63
2022-10-22T06:16:17.968Z,100709.72
2022-10-22T06:18:44.432Z,100711.44
2022-10-22T06:21:13.188Z,100716.75
2022-10-22T06:23:40.285Z,100713.38
2022-10-22T06:26:08.076Z,100715.22
2022-10-22T06:28:34.782Z,100701.53
2022-10-22T06:31:02.318Z,100720.66
2022-10-22T06:33:31.189Z,100726.81
2022-10-22T06:36:07.594Z,100716.69
2022-10-22T06:38:34.508Z,100725.31
2022-10-22T06:41:06.251Z,100699.72
2022-10-22T06:43:32.822Z,100737.66
2022-10-22T06:46:04.221Z,100746.34
2022-10-22T06:48:30.693Z,100754.22
2022-10-22T06:51:01.942Z,100764.66
2022-10-22T06:53:28.785Z,100763.00
2022-10-22T06:55:55.238Z,100758.84
2022-10-22T06:58:21.677Z,100742.56
2022-10-22T07:00:48.139Z,100791.75
2022-10-22T07:03:15.587Z,100788.28
2022-10-22T07:05:42.053Z,100791.88
2022-10-22T07:08:08.566Z,100794.50
2022-10-22T07:10:34.999Z,100802.22
2022-10-22T07:13:01.479Z,100801.38
2022-10-22T07:15:27.901Z,100799.63
2022-10-22T07:17:54.400Z,100779.84
2022-10-22T07:20:20.812Z,100804.94
2022-10-22T07:22:47.247Z,100821.28
2022-10-22T07:25:13.680Z,100823.88
2022-10-22T07:27:40.529Z,100814.41
2022-10-22T07:30:08.089Z,100826.53
2022-10-22T07:32:34.554Z,100842.06
2022-10-22T07:35:00.957Z,100850.75
2022-10-22T07:37:27.432Z,100851.56
2022-10-22T07:39:53.853Z,100857.72
2022-10-22T07:42:20.334Z,100873.28
2022-10-22T07:44:46.777Z,100838.84
2022-10-22T07:47:13.259Z,100867.28
2022-10-22T07:49:39.693Z,100868.06
2022-10-22T07:52:07.359Z,100884.53
2022-10-22T07:54:33.811Z,100887.94
2022-10-22T07:57:00.283Z,100887.88
2022-10-22T07:59:26.747Z,100870.66
2022-10-22T08:01:53.272Z,100892.22
2022-10-22T08:04:20.170Z,100899.16
2022-10-22T08:06:47.344Z,100903.59
2022-10-22T08:09:14.477Z,100913.06
2022-10-22T08:11:41.007Z,100922.59
2022-10-22T08:14:07.503Z,100919.06
2022-10-22T08:16:33.933Z,100923.41
2022-10-22T08:19:00.411Z,100923.47
2022-10-22T08:21:27.007Z,100920.88
2022-10-22T08:23:53.516Z,100921.75
2022-10-22T08:26:20.058Z,100932.06
2022-10-22T08:28:46.570Z,100933.00
2022-10-22T08:31:13.405Z,100939.88
2022-10-22T08:33:39.883Z,100944.09
2022-10-22T08:36:06.931Z,100955.28
2022-10-22T08:38:33.676Z,100939.66
2022-10-22T08:41:17.181Z,100948.09
2022-10-22T08:44:08.209Z,100966.94
2022-10-22T08:47:00.834Z,100959.81
2022-10-22T08:49:37.148Z,100942.34
2022-10-22T08:52:13.111Z,100940.44
2022-10-22T08:54:53.179Z,100978.91
2022-10-22T08:57:43.119Z,100968.00
2022-10-22T09:00:15.561Z,100948.63
2022-10-22T09:03:07.763Z,100981.69
2022-10-22T09:08:23.680Z,100970.63
2022-10-22T09:11:01.883Z,100975.41
2022-10-22T09:13:29.658Z,100986.19
2022-10-22T09:16:01.382Z,100983.06
2022-10-22T09:18:43.037Z,100992.19
2022-10-22T09:21:23.891Z,100981.38
2022-10-22T09:24:00.847Z,100992.09
2022-10-22T09:26:27.441Z,100994.19
2022-10-22T09:28:54.745Z,100997.91
2022-10-22T09:31:21.230Z,100994.94
2022-10-22T09:33:50.680Z,100990.78
2022-10-22T09:36:21.333Z,100980.31
2022-10-22T09:38:51.801Z,100989.84
2022-10-22T09:41:25.731Z,101019.94
2022-10-22T09:43:52.366Z,100983.25
2022-10-22T09:46:22.540Z,100984.63
2022-10-22T09:49:06.402Z,100989.59
2022-10-22T09:51:46.170Z,100989.22
2022-10-22T09:54:20.412Z,101013.13
2022-10-22T09:56:51.715Z,101007.06
2022-10-22T09:59:19.349Z,101020.34
2022-10-22T10:01:45.867Z,101024.88
2022-10-22T10:04:15.538Z,101033.84
2022-10-22T10:06:44.470Z,101033.34
2022-10-22T10:09:20.560Z,100995.78
2022-10-22T10:12:07.991Z,101026.06
2022-10-22T10:14:46.450Z,101014.16
2022-10-22T10:17:27.010Z,101021.31
2022-10-22T10:19:53.420Z,101041.56
2022-10-22T10:22:35.474Z,101040.84
2022-10-22T10:25:16.945Z,101051.53
2022-10-22T10:27:46.752Z,101050.00
2022-10-22T10:30:21.963Z,101028.00
2022-10-22T10:33:04.876Z,101060.00
2022-10-22T10:35:58.490Z,101054.81
2022-10-22T10:38:37.451Z,101065.22
2022-10-22T10:41:17.912Z,101060.00
2022-10-22T10:44:29.684Z,101028.44
2022-10-22T10:47:14.504Z,101070.81
2022-10-22T10:49:43.086Z,101060.72
2022-10-22T10:52:35.924Z,101084.19
2022-10-22T10:55:34.370Z,101076.50
2022-10-22T10:58:18.551Z,101054.34
2022-10-22T11:00:55.543Z,101050.19
2022-10-22T11:03:51.205Z,101085.75
2022-10-22T11:06:23.153Z,101033.19
2022-10-22T11:08:58.369Z,101084.94
2022-10-22T11:11:52.973Z,101081.41
2022-10-22T11:14:30.018Z,101053.88
2022-10-22T11:17:04.367Z,101042.69
2022-10-22T11:20:01.987Z,101072.94
2022-10-22T11:22:34.088Z,101053.28
2022-10-22T11:25:12.613Z,101085.25
2022-10-22T11:28:07.811Z,101079.13
2022-10-22T11:30:38.047Z,101066.31
2022-10-22T11:33:10.001Z,101087.88
2022-10-22T11:35:42.209Z,101082.75
2022-10-22T11:38:14.691Z,101061.34
2022-10-22T11:41:02.433Z,101091.56
2022-10-22T11:43:58.632Z,101087.09
2022-10-22T11:46:29.965Z,101081.06
2022-10-22T11:49:16.710Z,101085.28
2022-10-22T11:51:44.846Z,101054.28
2022-10-22T11:54:35.407Z,101090.50
2022-10-22T11:57:14.286Z,101093.03
2022-10-22T11:59:46.593Z,101085.19
2022-10-22T12:02:45.308Z,101078.19
2022-10-22T12:05:19.319Z,101060.97
2022-10-22T12:07:57.258Z,101079.94
2022-10-22T12:10:33.896Z,101091.22
2022-10-22T12:13:21.901Z,101075.63
2022-10-22T12:15:51.322Z,101076.38
2022-10-22T12:18:17.809Z,101078.88
2022-10-22T12:20:49.369Z,101070.94
2022-10-22T12:23:15.972Z,101076.16
2022-10-22T12:25:42.386Z,101061.50
2022-10-22T12:28:12.480Z,101067.44
2022-10-22T12:30:39.294Z,101086.31
2022-10-22T12:33:07.775Z,101081.81
2022-10-22T12:35:42.101Z,101040.38
2022-10-22T12:38:17.218Z,101070.38
2022-10-22T12:40:47.503Z,101072.97
2022-10-22T12:43:24.404Z,101051.34
2022-10-22T12:45:52.531Z,101037.44
2022-10-22T12:48:23.552Z,101038.22
2022-10-22T12:50:55.055Z,101034.59
2022-10-22T12:53:27.000Z,101067.28
2022-10-22T12:55:55.607Z,101065.47
2022-10-22T12:58:27.561Z,101035.41
2022-10-22T13:00:56.067Z,101053.34
2022-10-22T13:03:43.739Z,101075.88
2022-10-22T13:06:19.355Z,101068.00
2022-10-22T13:09:11.900Z,101067.94
2022-10-22T13:11:41.584Z,101082.69
2022-10-22T13:14:40.611Z,101056.72
2022-10-22T13:17:20.511Z,101077.19
2022-10-22T13:19:54.339Z,101043.66
2022-10-22T13:22:38.996Z,101082.44
2022-10-22T13:25:14.647Z,101087.53
2022-10-22T13:27:45.702Z,101077.03
2022-10-22T13:30:23.421Z,101038.19
2022-10-22T13:32:53.160Z,101075.16
2022-10-22T13:35:24.363Z,101079.47
2022-10-22T13:37:50.830Z,101069.78
2022-10-22T13:40:17.956Z,101064.66
2022-10-22T13:42:44.661Z,101094.31
2022-10-22T13:45:12.598Z,101079.47
2022-10-22T13:47:39.544Z,101074.13
2022-10-22T13:50:18.561Z,101075.88
2022-10-22T13:52:55.321Z,101056.75
2022-10-22T13:55:28.595Z,101044.69
2022-10-22T13:58:11.654Z,101072.13
2022-10-22T14:00:40.861Z,101076.31
2022-10-22T14:03:11.049Z,101074.53
2022-10-22T14:05:37.786Z,101078.91
2022-10-22T14:08:09.468Z,101090.97
2022-10-22T14:10:35.899Z,101086.53
2022-10-22T14:13:02.351Z,101088.16
2022-10-22T14:15:29.384Z,101069.03
2022-10-22T14:17:58.250Z,101050.94
2022-10-22T14:20:28.985Z,101041.31
2022-10-22T14:22:56.443Z,101071.38
2022-10-22T14:25:25.540Z,101075.72
2022-10-22T14:27:52.228Z,101072.94
2022-10-22T14:30:21.465Z,101035.66
2022-10-22T14:32:48.200Z,101068.22
2022-10-22T14:35:22.073Z,101066.22
2022-10-22T14:37:48.554Z,101062.50
2022-10-22T14:40:18.818Z,101051.97
2022-10-22T14:42:47.605Z,101058.69
2022-10-22T14:45:32.188Z,101059.34
2022-10-22T14:47:58.636Z,101065.97
2022-10-22T14:50:25.206Z,101064.00
2022-10-22T14:52:51.988Z,101061.22
2022-10-22T14:55:19.259Z,101065.41
2022-10-22T14:57:46.128Z,101068.91
2022-10-22T15:00:15.992Z,101034.31
2022-10-22T15:02:43.144Z,101050.53
2022-10-22T15:05:10.628Z,101046.19
2022-10-22T15:07:38.274Z,101041.22
2022-10-22T15:10:06.308Z,101059.63
2022-10-22T15:12:33.122Z,101050.97
2022-10-22T15:14:59.559Z,101060.63
2022-10-22T15:17:26.115Z,101057.22
2022-10-22T15:19:52.551Z,101054.84
2022-10-22T15:22:19.526Z,101059.06
2022-10-22T15:24:46.048Z,101052.13
2022-10-22T15:27:12.573Z,101061.81
2022-10-22T15:29:39.747Z,101058.44
2022-10-22T15:32:06.309Z,101055.81
2022-10-22T15:34:34.946Z,101068.03
2022-10-22T15:37:04.528Z,101064.59
2022-10-22T15:39:32.053Z,101067.22
2022-10-22T15:41:59.211Z,101062.06
2022-10-22T15:44:30.850Z,101056.03
2022-10-22T15:46:58.158Z,101064.78
2022-10-22T15:49:26.931Z,101060.59
2022-10-22T15:51:53.537Z,101059.81
2022-10-22T15:54:22.579Z,101033.28
2022-10-22T15:56:49.346Z,101059.09
2022-10-22T15:59:17.249Z,101054.03
2022-10-22T16:01:44.406Z,101069.78
2022-10-22T16:04:11.076Z,101065.47
2022-10-22T16:06:44.562Z,101066.41
2022-10-22T16:09:14.496Z,101064.78
2022-10-22T16:11:41.938Z,101073.56
2022-10-22T16:14:11.004Z,101061.47
2022-10-22T16:16:37.516Z,101056.38
2022-10-22T16:19:03.947Z,101064.19
2022-10-22T16:21:30.415Z,101062.66
2022-10-22T16:23:56.975Z,101039.53
2022-10-22T16:26:23.497Z,101073.28
2022-10-22T16:28:50.172Z,101067.38
2022-10-22T16:31:17.817Z,101045.13
2022-10-22T16:33:46.505Z,101065.81
2022-10-22T16:36:18.735Z,101066.09
2022-10-22T16:38:46.530Z,101061.81
2022-10-22T16:41:15.918Z,101029.22
2022-10-22T16:43:43.811Z,101066.38
2022-10-22T16:46:11.349Z,101069.91
2022-10-22T16:48:38.001Z,101059.72
2022-10-22T16:51:07.346Z,101073.69
2022-10-22T16:56:01.544Z,101065.25
2022-10-22T16:58:27.999Z,101061.19
2022-10-22T17:00:54.566Z,101070.69
2022-10-22T17:03:23.478Z,101061.41
2022-10-22T17:05:52.490Z,101069.22
2022-10-22T17:08:18.948Z,101083.22
2022-10-22T17:10:45.416Z,101085.94
2022-10-22T17:13:11.845Z,101072.13
2022-10-22T17:15:38.277Z,101080.91
2022-10-22T17:18:24.723Z,101087.97
2022-10-22T17:20:51.141Z,101089.72
2022-10-22T17:23:17.596Z,101080.25
2022-10-22T17:25:44.539Z,101071.63
2022-10-22T17:28:11.868Z,101070.84
2022-10-22T17:30:38.586Z,101075.22
2022-10-22T17:33:06.218Z,101075.28
2022-10-22T17:35:33.781Z,101090.91
2022-10-22T17:38:00.209Z,101084.13
2022-10-22T17:40:26.720Z,101084.03
2022-10-22T17:42:53.478Z,101089.28
2022-10-22T17:45:20.038Z,101077.28
2022-10-22T17:47:46.456Z,101084.13
2022-10-22T17:50:12.968Z,101063.50
2022-10-22T17:52:39.645Z,101081.66
2022-10-22T17:55:06.659Z,101081.66
2022-10-22T17:57:33.061Z,101077.38
2022-10-22T17:59:59.527Z,101078.38
2022-10-22T18:02:26.025Z,101084.44
2022-10-22T18:04:52.685Z,101082.84
2022-10-22T18:07:19.116Z,101089.84
2022-10-22T18:09:45.605Z,101081.28
2022-10-22T18:12:12.307Z,101096.91
2022-10-22T18:14:38.724Z,101100.47
2022-10-22T18:17:05.214Z,101100.53
2022-10-22T18:19:31.796Z,101097.13
2022-10-22T18:21:58.697Z,101105.91
2022-10-22T18:24:25.144Z,101112.06
2022-10-22T18:26:51.610Z,101109.50
2022-10-22T18:29:18.972Z,101105.13
2022-10-22T18:31:45.439Z,101111.25
2022-10-22T18:34:12.171Z,101106.13
2022-10-22T18:36:40.476Z,101082.19
2022-10-22T18:39:07.383Z,101115.81
2022-10-22T18:41:34.160Z,101111.53
2022-10-22T18:44:03.893Z,101118.56
2022-10-22T18:46:31.795Z,101115.97
2022-10-22T18:48:59.014Z,101118.59
2022-10-22T18:51:27.464Z,101117.84
2022-10-22T18:54:05.319Z,101124.78
2022-10-22T18:56:39.348Z,101117.88
2022-10-22T18:59:05.788Z,101117.03
2022-10-22T19:01:32.269Z,101124.00
2022-10-22T19:03:59.094Z,101125.78
2022-10-22T19:06:33.310Z,101100.88
2022-10-22T19:09:03.973Z,101119.78
2022-10-22T19:11:30.488Z,101125.00
2022-10-22T19:13:57.742Z,101127.66
2022-10-22T19:16:24.174Z,101130.34
2022-10-22T19:18:52.306Z,101127.75
2022-10-22T19:21:19.081Z,101131.25
2022-10-22T19:26:18.668Z,101093.34
2022-10-22T19:28:45.470Z,101129.59
2022-10-22T19:31:16.445Z,101113.34
2022-10-22T19:33:42.886Z,101115.03
2022-10-22T19:36:12.682Z,101103.97
2022-10-22T19:38:40.838Z,101119.50
2022-10-22T19:41:08.619Z,101125.50
2022-10-22T19:43:35.075Z,101130.78
2022-10-22T19:46:04.372Z,101136.78
2022-10-22T19:48:31.387Z,101128.94
2022-10-22T19:51:02.608Z,101128.97
2022-10-22T19:53:30.169Z,101119.50
2022-10-22T19:55:58.762Z,101124.72
2022-10-22T19:58:25.716Z,101129.06
2022-10-22T20:00:53.036Z,101112.59
2022-10-22T20:03:19.919Z,101130.81
2022-10-22T20:05:47.433Z,101131.75
2022-10-22T20:08:14.157Z,101130.00
2022-10-22T20:10:40.613Z,101131.75
2022-10-22T20:13:07.052Z,101131.78
2022-10-22T20:15:34.218Z,101130.94
2022-10-22T20:18:00.888Z,101135.25
2022-10-22T20:20:27.318Z,101109.34
2022-10-22T20:22:54.077Z,101133.50
2022-10-22T20:25:20.503Z,101139.59
2022-10-22T20:27:47.123Z,101143.91
2022-10-22T20:30:14.303Z,101134.38
2022-10-22T20:32:41.148Z,101126.59
2022-10-22T20:35:08.096Z,101130.03
2022-10-22T20:37:34.760Z,101133.50
2022-10-22T20:40:01.199Z,101126.53
2022-10-22T20:42:27.673Z,101131.75
2022-10-22T20:44:54.079Z,101121.28
2022-10-22T20:47:20.541Z,101102.34
2022-10-22T20:49:46.935Z,101128.22
2022-10-22T20:52:13.368Z,101133.44
2022-10-22T20:54:39.944Z,101123.91
2022-10-22T20:57:06.425Z,101128.22
2022-10-22T20:59:32.930Z,101117.84
2022-10-22T21:01:59.475Z,101116.09
2022-10-22T21:04:26.161Z,101126.44
2022-10-22T21:06:52.992Z,101130.78
2022-10-22T21:09:20.130Z,101130.78
2022-10-22T21:11:47.434Z,101126.44
2022-10-22T21:14:15.507Z,101128.09
2022-10-22T21:16:44.039Z,101128.94
2022-10-22T21:19:10.762Z,101128.94
2022-10-22T21:21:37.617Z,101132.41
2022-10-22T21:24:04.101Z,101122.00
2022-10-22T21:26:30.547Z,101124.59
2022-10-22T21:28:56.948Z,101128.09
2022-10-22T21:31:23.505Z,101068.66
2022-10-22T21:33:50.538Z,101126.28
2022-10-22T21:36:21.630Z,101132.34
2022-10-22T21:38:50.555Z,101134.09
2022-10-22T21:41:18.413Z,101128.84
2022-10-22T21:43:46.072Z,101127.97
2022-10-22T21:46:16.498Z,101121.84
2022-10-22T21:48:43.246Z,101121.00
2022-10-22T21:51:15.916Z,101127.94
2022-10-22T21:53:43.339Z,101114.97
2022-10-22T21:56:15.049Z,101116.66
2022-10-22T21:58:41.699Z,101124.44
2022-10-22T22:01:08.395Z,101124.38
2022-10-22T22:03:34.829Z,101120.91
2022-10-22T22:06:03.870Z,101112.19
2022-10-22T22:08:30.955Z,101110.41
2022-10-22T22:11:09.452Z,101077.66
2022-10-22T22:13:36.395Z,101091.28
2022-10-22T22:16:15.127Z,101065.50
2022-10-22T22:18:41.803Z,101057.59
2022-10-22T22:21:13.812Z,101032.44
2022-10-22T22:23:43.528Z,101043.59
2022-10-22T22:26:11.149Z,101061.63
2022-10-22T22:28:37.894Z,101059.09
2022-10-22T22:31:34.514Z,101064.22
2022-10-22T22:34:03.930Z,101059.00
2022-10-22T22:36:39.795Z,101064.22
2022-10-22T22:39:07.946Z,101068.50
2022-10-22T22:41:34.892Z,101060.66
2022-10-22T22:44:01.872Z,101058.06
2022-10-22T22:46:28.596Z,101049.44
2022-10-22T22:48:55.336Z,101059.00
2022-10-22T22:51:21.816Z,101072.97
2022-10-22T22:53:48.229Z,101062.63
2022-10-22T22:56:20.727Z,101050.59
2022-10-22T22:58:47.374Z,101066.88
2022-10-22T23:01:15.868Z,101054.69
2022-10-22T23:03:43.414Z,101047.72
2022-10-22T23:06:10.526Z,101044.19
2022-10-22T23:08:37.380Z,101036.34
2022-10-22T23:11:13.970Z,101037.25
2022-10-22T23:13:42.027Z,101036.34
2022-10-22T23:16:17.451Z,101047.81
2022-10-22T23:18:45.872Z,101045.03
2022-10-22T23:21:14.062Z,101038.94
2022-10-22T23:23:49.053Z,101036.38
2022-10-22T23:26:28.012Z,101030.38
2022-10-22T23:28:54.811Z,101036.44
2022-10-22T23:31:21.530Z,101041.59
2022-10-22T23:33:48.406Z,101045.16
2022-10-22T23:36:14.905Z,101039.06
2022-10-22T23:38:43.092Z,101037.38
2022-10-22T23:41:09.925Z,101013.28
2022-10-22T23:43:37.620Z,101049.66
2022-10-22T23:46:08.567Z,101028.78
2022-10-22T23:48:35.787Z,101033.13
2022-10-22T23:51:05.821Z,101034.06
2022-10-22T23:53:32.348Z,101022.78
2022-10-22T23:56:03.920Z,100982.16
2022-10-22T23:58:30.346Z,100994.13
